Weather at Philadelphia International Airport

Public forecast

Using degrees Fahrenheit for public forecast. Weather courtesy of forecast.io.

Current aviation weather report (METAR) for Philadelphia International Airport

Retrieved 2020/10/21 10:04 UTC (4 minutes ago):

KPHL 211004Z 12004KT 1/4SM FG OVC002 15/15 A3027 RMK AO2 T01500150 RVRNO

Aviation forecast (TAF) for Philadelphia International Airport

Retrieved 2020/10/21 06:26 UTC (4 hours ago):

TAF KPHL 210520Z 2106/2212 VRB02KT 1SM BR SCT002 TEMPO 2106/2110 1/4SM FG VV002 FM211000 VRB02KT 1/4SM FG VV002 FM211300 15003KT 3SM BR OVC010 FM211500 19005KT 6SM BR BKN020 FM211700 22008KT P6SM FEW030 BKN200